createdAt,value
2022-11-29T00:00:02.662Z,2.1
2022-11-29T00:05:09.240Z,2.1
2022-11-29T00:10:15.817Z,2.1
2022-11-29T00:15:22.389Z,2.1
2022-11-29T00:20:28.962Z,2.1
2022-11-29T00:25:34.791Z,2.1
2022-11-29T00:35:47.943Z,2.1
2022-11-29T00:51:07.652Z,2
2022-11-29T00:56:14.223Z,2
2022-11-29T01:06:27.359Z,2.1
2022-11-29T01:11:33.942Z,2.1
2022-11-29T01:16:40.516Z,2.1
2022-11-29T01:21:47.082Z,2.1
2022-11-29T01:26:53.648Z,2
2022-11-29T01:31:59.494Z,2.1
2022-11-29T01:37:06.069Z,2
2022-11-29T01:47:19.204Z,2.1
2022-11-29T01:52:25.773Z,2.1
2022-11-29T01:57:32.391Z,2.1
2022-11-29T02:02:38.949Z,2.2
2022-11-29T02:07:45.527Z,2.2
2022-11-29T02:12:52.091Z,2.2
2022-11-29T02:17:58.661Z,2.2
2022-11-29T02:23:05.242Z,2.2
2022-11-29T02:33:18.386Z,2.3
2022-11-29T02:38:24.942Z,2.3
2022-11-29T02:43:30.781Z,2.3
2022-11-29T02:48:37.364Z,2.3
2022-11-29T02:58:50.509Z,2.3
2022-11-29T03:03:57.086Z,2.3
2022-11-29T03:09:03.663Z,2.3
2022-11-29T03:24:23.373Z,2.3
2022-11-29T03:29:29.940Z,2.3
2022-11-29T03:39:43.079Z,2.3
2022-11-29T03:44:49.645Z,2.3
2022-11-29T03:49:55.495Z,2.3
2022-11-29T03:55:02.065Z,2.3
2022-11-29T04:00:08.631Z,2.3
2022-11-29T04:05:15.191Z,2.3
2022-11-29T04:10:21.772Z,2.3
2022-11-29T04:15:28.354Z,2.3
2022-11-29T04:30:48.075Z,2.3
2022-11-29T04:41:01.198Z,2.3
2022-11-29T04:46:07.821Z,2.3
2022-11-29T04:51:14.356Z,2.4
2022-11-29T04:56:20.923Z,2.3
2022-11-29T05:01:27.493Z,2.3
2022-11-29T05:06:33.328Z,2.3
2022-11-29T05:11:39.893Z,2.3
2022-11-29T05:16:46.470Z,2.3
2022-11-29T05:21:53.042Z,2.3
2022-11-29T05:26:59.615Z,2.3
2022-11-29T05:32:06.182Z,2.3
2022-11-29T05:42:19.327Z,2.3
2022-11-29T05:47:25.890Z,2.3
2022-11-29T05:57:39.033Z,2.3
2022-11-29T06:02:45.601Z,2.3
2022-11-29T06:12:58.759Z,2.3
2022-11-29T06:23:11.168Z,2.3
2022-11-29T06:28:17.725Z,2.3
2022-11-29T06:33:24.312Z,2.3
2022-11-29T06:38:30.869Z,2.3
2022-11-29T06:48:44.023Z,2.4
2022-11-29T06:53:50.604Z,2.4
2022-11-29T06:58:57.165Z,2.4
2022-11-29T07:04:03.750Z,2.4
2022-11-29T07:09:10.311Z,2.4
2022-11-29T07:14:16.893Z,2.5
2022-11-29T07:19:23.459Z,2.5
2022-11-29T07:39:48.990Z,2.6
2022-11-29T07:44:55.575Z,2.6
2022-11-29T07:50:02.134Z,2.6
2022-11-29T08:00:15.344Z,2.7
2022-11-29T08:05:21.869Z,2.7
2022-11-29T08:20:41.565Z,2.9
2022-11-29T08:30:54.707Z,2.9
2022-11-29T08:36:00.568Z,2.9
2022-11-29T08:41:07.113Z,3
2022-11-29T08:46:13.701Z,3
2022-11-29T08:51:20.258Z,3
2022-11-29T09:01:33.548Z,3
2022-11-29T09:06:40.102Z,3
2022-11-29T09:16:53.132Z,3.1
2022-11-29T09:21:59.712Z,3.1
2022-11-29T09:32:12.850Z,3.2
2022-11-29T09:37:19.411Z,3.2
2022-11-29T09:47:31.872Z,3.2
2022-11-29T09:52:38.385Z,3.2
2022-11-29T09:57:44.972Z,3.3
2022-11-29T10:02:51.559Z,3.3
2022-11-29T10:07:58.121Z,3.3
2022-11-29T10:18:11.261Z,3.4
2022-11-29T10:23:17.848Z,3.4
2022-11-29T10:33:31.001Z,3.5
2022-11-29T10:38:37.548Z,3.5
2022-11-29T10:43:44.217Z,3.5
2022-11-29T10:48:50.751Z,3.5
2022-11-29T10:53:57.270Z,3.5
2022-11-29T10:59:03.130Z,3.5
2022-11-29T11:04:09.665Z,3.6
2022-11-29T11:09:16.233Z,3.6
2022-11-29T11:14:22.805Z,3.6
2022-11-29T11:19:29.389Z,3.6
2022-11-29T11:24:35.969Z,3.6
2022-11-29T11:29:42.578Z,3.6
2022-11-29T11:34:49.201Z,3.6
2022-11-29T11:39:55.663Z,3.6
2022-11-29T11:45:02.237Z,3.6
2022-11-29T11:50:08.812Z,3.6
2022-11-29T11:55:15.380Z,3.6
2022-11-29T12:05:28.565Z,3.6
2022-11-29T12:10:34.395Z,3.6
2022-11-29T12:20:47.510Z,3.7
2022-11-29T12:25:54.236Z,3.7
2022-11-29T12:31:00.668Z,3.7
2022-11-29T12:36:07.229Z,3.7
2022-11-29T12:41:13.803Z,3.7
2022-11-29T12:51:26.953Z,3.7
2022-11-29T13:06:46.658Z,3.6
2022-11-29T13:11:53.269Z,3.6
2022-11-29T13:22:05.841Z,3.6
2022-11-29T13:27:12.359Z,3.7
2022-11-29T13:37:25.521Z,3.6
2022-11-29T13:42:31.928Z,3.7
2022-11-29T13:47:38.514Z,3.7
2022-11-29T13:52:45.065Z,3.7
2022-11-29T13:57:51.640Z,3.7
2022-11-29T14:13:11.360Z,3.8
2022-11-29T14:23:24.497Z,3.7
2022-11-29T14:28:31.098Z,3.7
2022-11-29T14:38:43.512Z,3.7
2022-11-29T14:43:50.080Z,3.8
2022-11-29T14:54:03.226Z,3.7
2022-11-29T14:59:09.912Z,3.8
2022-11-29T15:04:16.474Z,3.7
2022-11-29T15:09:22.944Z,3.8
2022-11-29T15:14:29.507Z,3.8
2022-11-29T15:19:36.081Z,3.8
2022-11-29T15:24:42.654Z,3.8
2022-11-29T15:29:49.250Z,3.8
2022-11-29T15:40:02.357Z,3.8
2022-11-29T15:45:08.946Z,3.8
2022-11-29T15:55:21.363Z,3.7
2022-11-29T16:00:27.949Z,3.7
2022-11-29T16:05:34.592Z,3.7
2022-11-29T16:10:41.062Z,3.7
2022-11-29T16:15:47.642Z,3.7
2022-11-29T16:20:54.212Z,3.7
2022-11-29T16:26:00.811Z,3.8
2022-11-29T16:31:07.350Z,3.8
2022-11-29T16:41:20.543Z,3.8
2022-11-29T16:46:27.114Z,3.8
2022-11-29T16:51:33.638Z,3.8
2022-11-29T16:56:40.212Z,3.8
2022-11-29T17:01:46.174Z,3.8
2022-11-29T17:06:52.621Z,3.8
2022-11-29T17:11:59.205Z,3.8
2022-11-29T17:17:05.815Z,3.8
2022-11-29T17:22:12.353Z,3.8
2022-11-29T17:27:18.931Z,3.8
2022-11-29T17:32:24.802Z,3.8
2022-11-29T17:37:31.370Z,3.8
2022-11-29T17:42:37.250Z,3.8
2022-11-29T17:47:43.227Z,3.8
2022-11-29T17:52:49.655Z,3.8
2022-11-29T17:57:56.230Z,3.8
2022-11-29T18:03:02.892Z,3.8
2022-11-29T18:08:09.390Z,3.8
2022-11-29T18:13:15.959Z,3.8
2022-11-29T18:18:22.622Z,3.8
2022-11-29T18:23:29.088Z,3.8
2022-11-29T18:28:35.658Z,3.8
2022-11-29T18:33:42.222Z,3.8
2022-11-29T18:38:48.188Z,3.8
2022-11-29T18:43:54.681Z,3.8
2022-11-29T18:49:00.545Z,3.8
2022-11-29T18:54:07.128Z,3.8
2022-11-29T18:59:13.683Z,3.7
2022-11-29T19:04:20.308Z,3.8
2022-11-29T19:14:33.396Z,3.7
2022-11-29T19:19:39.987Z,3.7
2022-11-29T19:24:46.547Z,3.7
2022-11-29T19:29:53.093Z,3.7
2022-11-29T19:34:59.672Z,3.7
2022-11-29T19:40:06.247Z,3.7
2022-11-29T19:45:12.819Z,3.7
2022-11-29T19:50:19.404Z,3.7
2022-11-29T20:00:31.797Z,3.7
2022-11-29T20:05:37.694Z,3.7
2022-11-29T20:10:43.575Z,3.7
2022-11-29T20:15:50.109Z,3.7
2022-11-29T20:20:56.672Z,3.7
2022-11-29T20:26:03.299Z,3.7
2022-11-29T20:31:09.802Z,3.6
2022-11-29T20:36:16.393Z,3.7
2022-11-29T20:46:29.581Z,3.6
2022-11-29T20:51:36.099Z,3.6
2022-11-29T20:56:42.744Z,3.6
2022-11-29T21:01:49.233Z,3.6
2022-11-29T21:06:55.838Z,3.6
2022-11-29T21:12:02.412Z,3.6
2022-11-29T21:17:08.227Z,3.6
2022-11-29T21:22:14.907Z,3.6
2022-11-29T21:27:21.372Z,3.6
2022-11-29T21:32:27.937Z,3.6
2022-11-29T21:37:34.524Z,3.6
2022-11-29T21:42:41.088Z,3.6
2022-11-29T21:47:47.808Z,3.5
2022-11-29T21:52:54.291Z,3.6
2022-11-29T21:58:00.147Z,3.5
2022-11-29T22:03:06.688Z,3.5
2022-11-29T22:08:12.533Z,3.5
2022-11-29T22:13:19.128Z,3.5
2022-11-29T22:18:25.670Z,3.5
2022-11-29T22:23:32.240Z,3.5
2022-11-29T22:28:38.813Z,3.5
2022-11-29T22:33:45.414Z,3.5
2022-11-29T22:38:51.959Z,3.5
2022-11-29T22:43:58.524Z,3.5
2022-11-29T22:49:05.168Z,3.5
2022-11-29T22:54:11.667Z,3.4
2022-11-29T22:59:18.234Z,3.4
2022-11-29T23:04:24.863Z,3.4
2022-11-29T23:09:31.370Z,3.4
2022-11-29T23:19:43.790Z,3.4
2022-11-29T23:24:50.361Z,3.4
2022-11-29T23:29:56.953Z,3.4
2022-11-29T23:35:03.508Z,3.4
2022-11-29T23:40:10.084Z,3.4
2022-11-29T23:45:16.647Z,3.4
2022-11-29T23:50:23.231Z,3.4
2022-11-29T23:55:29.798Z,3.4
